Time;durP1;ratioP1;P1;durP2;ratioP2;P2;SDS_P1;SDS_P2;PMS_P1;PMS_P2;Temp;Humidity;BMP_temperature;BMP_pressure;BME280_temperature;BME280_humidity;BME280_pressure;Samples;Min_cycle;Max_cycle;Signal;HPM_P1;HPM_P2
2023/03/16 00:00:36;;;;;;;8.00;2.28;;;2.30;99.90;;;;;;4934832;28;20134;-82
2023/03/16 00:03:02;;;;;;;10.57;2.38;;;2.80;99.90;;;;;;4935579;28;20046;-82
2023/03/16 00:05:28;;;;;;;6.88;2.20;;;2.40;99.90;;;;;;4934753;28;20047;-81
2023/03/16 00:07:54;;;;;;;8.05;2.40;;;2.60;99.90;;;;;;4950806;28;20051;-82
2023/03/16 00:10:25;;;;;;;9.95;2.72;;;3.20;99.90;;;;;;4936261;28;20073;-82
2023/03/16 00:12:53;;;;;;;5.82;1.92;;;2.90;99.90;;;;;;4955197;28;20117;-81
2023/03/16 00:15:19;;;;;;;8.20;2.70;;;2.40;99.90;;;;;;4953687;28;20141;-81
2023/03/16 00:17:47;;;;;;;9.90;2.70;;;2.70;99.90;;;;;;4939045;28;20039;-81
2023/03/16 00:20:15;;;;;;;5.50;2.30;;;2.70;99.90;;;;;;4953606;28;20046;-82
2023/03/16 00:22:41;;;;;;;7.57;2.33;;;2.40;99.90;;;;;;4938111;28;20043;-82
2023/03/16 00:25:08;;;;;;;9.23;2.45;;;3.30;99.90;;;;;;4938881;28;20043;-82
2023/03/16 00:27:33;;;;;;;8.35;2.30;;;2.50;99.90;;;;;;4954915;28;20057;-81
2023/03/16 00:30:02;;;;;;;10.45;2.70;;;3.00;99.90;;;;;;4954414;28;20112;-81
2023/03/16 00:32:31;;;;;;;7.35;2.40;;;2.80;99.90;;;;;;4954516;28;20051;-82
2023/03/16 00:34:58;;;;;;;8.98;2.15;;;2.70;99.90;;;;;;4953415;28;20254;-81
2023/03/16 00:37:25;;;;;;;10.68;2.50;;;2.90;99.90;;;;;;4954515;28;20082;-82
2023/03/16 00:39:54;;;;;;;7.97;2.42;;;2.50;99.90;;;;;;4962585;28;20067;-81
2023/03/16 00:42:26;;;;;;;8.35;2.28;;;3.10;99.90;;;;;;4956559;28;20060;-82
2023/03/16 00:44:56;;;;;;;9.88;2.67;;;2.50;99.90;;;;;;4957793;28;20269;-81
2023/03/16 00:47:23;;;;;;;9.85;2.58;;;3.50;99.90;;;;;;4974189;28;20046;-82
2023/03/16 00:49:49;;;;;;;8.82;2.40;;;3.10;99.90;;;;;;4973310;28;20462;-82
2023/03/16 00:52:15;;;;;;;6.70;1.98;;;2.60;99.90;;;;;;4957032;28;20055;-81
2023/03/16 00:54:42;;;;;;;10.77;2.42;;;3.50;99.90;;;;;;4973688;28;20078;-81
2023/03/16 00:57:10;;;;;;;7.65;2.55;;;3.60;99.90;;;;;;4972249;28;20138;-81
2023/03/16 00:59:37;;;;;;;8.57;2.47;;;2.60;99.90;;;;;;4957622;28;20161;-81
2023/03/16 01:02:04;;;;;;;6.93;2.15;;;2.80;99.90;;;;;;4972935;28;20038;-81
2023/03/16 01:04:31;;;;;;;8.85;2.58;;;2.70;99.90;;;;;;4957141;28;20081;-82
2023/03/16 01:06:57;;;;;;;7.15;2.92;;;3.20;99.90;;;;;;4956870;28;20141;-82
2023/03/16 01:09:22;;;;;;;8.07;2.67;;;3.20;99.90;;;;;;4956816;28;20133;-82
2023/03/16 01:11:52;;;;;;;6.97;2.63;;;3.70;99.90;;;;;;4972533;28;20133;-82
2023/03/16 01:14:18;;;;;;;8.07;2.40;;;3.20;99.90;;;;;;4973236;28;20043;-82
2023/03/16 01:16:44;;;;;;;7.13;2.13;;;2.70;99.90;;;;;;4973069;28;20046;-82
2023/03/16 01:19:12;;;;;;;6.38;2.15;;;3.30;99.90;;;;;;4955952;28;20038;-81
2023/03/16 01:21:38;;;;;;;6.68;2.28;;;3.10;99.90;;;;;;4971921;28;20045;-82
2023/03/16 01:24:04;;;;;;;6.95;2.45;;;2.90;99.90;;;;;;4956718;28;20042;-81
2023/03/16 01:26:31;;;;;;;5.72;2.00;;;2.80;99.90;;;;;;4972879;28;20129;-82
2023/03/16 01:28:57;;;;;;;8.38;2.50;;;3.90;99.90;;;;;;4973331;28;20050;-81
2023/03/16 01:31:22;;;;;;;7.00;2.65;;;2.80;99.90;;;;;;4971946;28;20038;-82
2023/03/16 01:33:48;;;;;;;9.43;2.45;;;2.90;99.90;;;;;;4956896;28;20413;-82
2023/03/16 01:36:17;;;;;;;9.10;2.58;;;3.10;99.90;;;;;;4956287;28;20046;-81
2023/03/16 01:38:42;;;;;;;4.53;2.25;;;3.20;99.90;;;;;;4956016;28;20054;-82
2023/03/16 01:41:09;;;;;;;8.00;2.92;;;2.90;99.90;;;;;;4953257;28;20283;-82
2023/03/16 01:43:37;;;;;;;10.50;3.05;;;3.10;99.90;;;;;;4937115;28;20055;-81
2023/03/16 01:46:04;;;;;;;10.60;3.05;;;3.90;99.90;;;;;;4952672;28;20402;-82
2023/03/16 01:48:46;;;;;;;10.55;3.72;;;2.80;99.90;;;;;;4953303;28;20054;-82
2023/03/16 01:51:23;;;;;;;7.80;3.10;;;3.00;99.90;;;;;;4936030;28;20042;-82
2023/03/16 01:53:52;;;;;;;10.93;3.22;;;2.80;99.90;;;;;;4936389;28;20035;-82
2023/03/16 01:56:23;;;;;;;9.10;2.80;;;2.80;99.90;;;;;;4936760;28;20129;-81
2023/03/16 01:58:57;;;;;;;14.52;3.38;;;3.60;99.90;;;;;;4937028;28;20057;-82
2023/03/16 02:01:25;;;;;;;7.13;2.92;;;2.80;99.90;;;;;;4952417;28;20113;-81
2023/03/16 02:04:01;;;;;;;7.95;2.92;;;2.80;99.90;;;;;;4952760;28;20106;-81
2023/03/16 02:06:28;;;;;;;6.80;3.00;;;2.80;99.90;;;;;;4951474;28;20038;-81
2023/03/16 02:08:55;;;;;;;7.55;2.75;;;3.10;99.90;;;;;;4937180;28;20054;-82
2023/03/16 02:11:22;;;;;;;8.50;3.05;;;2.80;99.90;;;;;;4936548;28;20487;-81
2023/03/16 02:13:48;;;;;;;13.38;3.78;;;2.90;99.90;;;;;;4952505;28;20058;-81
2023/03/16 02:16:18;;;;;;;10.07;3.40;;;3.20;99.90;;;;;;4952942;28;20110;-82
2023/03/16 02:18:47;;;;;;;16.27;3.03;;;2.80;99.90;;;;;;4952870;28;20126;-81
2023/03/16 02:21:24;;;;;;;13.52;3.67;;;2.90;99.90;;;;;;4951242;28;20051;-81
2023/03/16 02:23:51;;;;;;;12.18;4.20;;;2.80;99.90;;;;;;4937014;28;20051;-81
2023/03/16 02:26:25;;;;;;;10.05;3.00;;;2.90;99.90;;;;;;4951985;28;20054;-81
2023/03/16 02:28:58;;;;;;;7.80;3.00;;;3.20;99.90;;;;;;4952776;28;20129;-82
2023/03/16 02:31:23;;;;;;;9.18;3.10;;;2.80;99.90;;;;;;4936510;28;20054;-82
2023/03/16 02:33:51;;;;;;;13.00;4.13;;;2.80;99.90;;;;;;4935987;28;20136;-82
2023/03/16 02:36:18;;;;;;;10.13;3.42;;;3.40;99.90;;;;;;4934424;28;20487;-82
2023/03/16 02:38:45;;;;;;;12.65;3.55;;;2.90;99.90;;;;;;4936645;28;20077;-82
2023/03/16 02:41:13;;;;;;;10.05;3.75;;;3.60;99.90;;;;;;4951073;28;20090;-81
2023/03/16 02:43:43;;;;;;;12.85;3.65;;;3.50;99.90;;;;;;4951863;28;20605;-82
2023/03/16 02:46:08;;;;;;;7.22;3.65;;;3.40;99.90;;;;;;4951746;28;20049;-81
2023/03/16 02:48:55;;;;;;;10.40;3.58;;;2.90;99.90;;;;;;4951417;28;20050;-82
2023/03/16 02:51:20;;;;;;;10.05;3.35;;;2.90;99.90;;;;;;4935574;28;20137;-82
2023/03/16 02:53:46;;;;;;;8.10;3.28;;;3.30;99.90;;;;;;4954597;28;20487;-82
2023/03/16 02:56:12;;;;;;;11.48;3.42;;;2.90;99.90;;;;;;4970533;28;20069;-81
2023/03/16 02:58:37;;;;;;;9.00;3.53;;;3.30;99.90;;;;;;4971500;28;20089;-81
2023/03/16 03:01:03;;;;;;;12.80;3.55;;;3.50;99.90;;;;;;4955198;28;20038;-82
2023/03/16 03:03:29;;;;;;;10.43;3.65;;;3.00;99.90;;;;;;4971272;28;20042;-82
2023/03/16 03:05:55;;;;;;;8.27;3.45;;;3.40;99.90;;;;;;4969947;28;20058;-82
2023/03/16 03:08:22;;;;;;;7.18;3.33;;;3.80;99.90;;;;;;4955461;28;20057;-82
2023/03/16 03:10:48;;;;;;;10.07;3.05;;;3.90;99.90;;;;;;4954673;28;20083;-81
2023/03/16 03:13:14;;;;;;;11.10;3.30;;;3.10;99.90;;;;;;4971495;28;20042;-82
2023/03/16 03:15:39;;;;;;;6.95;3.40;;;3.50;99.90;;;;;;4955055;28;20046;-82
2023/03/16 03:18:06;;;;;;;13.45;3.45;;;3.90;99.90;;;;;;4970210;28;20058;-81
2023/03/16 03:20:32;;;;;;;7.13;3.50;;;3.10;99.90;;;;;;4954686;28;20512;-81
2023/03/16 03:22:57;;;;;;;9.15;3.60;;;3.10;99.90;;;;;;4971214;28;20053;-81
2023/03/16 03:25:23;;;;;;;7.40;3.53;;;3.80;99.90;;;;;;4954233;28;20042;-81
2023/03/16 03:27:50;;;;;;;8.93;3.58;;;3.80;99.90;;;;;;4955481;28;20042;-82
2023/03/16 03:30:18;;;;;;;11.10;3.70;;;3.30;99.90;;;;;;4954583;28;20053;-81
2023/03/16 03:32:45;;;;;;;7.13;3.30;;;4.20;99.90;;;;;;4970612;28;20057;-82
2023/03/16 03:35:13;;;;;;;9.80;3.80;;;3.60;99.90;;;;;;4954127;28;20085;-82
2023/03/16 03:37:41;;;;;;;8.90;3.90;;;3.50;99.90;;;;;;4955361;28;20046;-82
2023/03/16 03:40:09;;;;;;;10.52;3.20;;;3.20;99.90;;;;;;4950473;28;20189;-82
2023/03/16 03:42:35;;;;;;;14.95;3.65;;;3.20;99.90;;;;;;4951634;28;20134;-82
2023/03/16 03:45:01;;;;;;;9.98;3.72;;;3.20;99.90;;;;;;4952570;28;20130;-81
2023/03/16 03:47:27;;;;;;;9.90;3.38;;;3.30;99.90;;;;;;4955868;28;20057;-82
2023/03/16 03:49:52;;;;;;;11.13;3.85;;;4.20;99.90;;;;;;4955024;28;20051;-82
2023/03/16 03:52:18;;;;;;;7.38;3.38;;;3.60;99.90;;;;;;4954377;28;20050;-82
2023/03/16 03:54:44;;;;;;;8.32;3.42;;;4.00;99.90;;;;;;4940055;28;20038;-81
2023/03/16 03:57:10;;;;;;;13.07;3.80;;;3.30;99.90;;;;;;4939304;28;20430;-82
2023/03/16 03:59:41;;;;;;;10.77;3.65;;;3.50;99.90;;;;;;4938697;28;20051;-82
2023/03/16 04:02:08;;;;;;;9.80;3.10;;;3.80;99.90;;;;;;4955011;28;20051;-82
2023/03/16 04:04:34;;;;;;;9.60;3.53;;;3.50;99.90;;;;;;4955355;28;20074;-82
2023/03/16 04:06:59;;;;;;;6.47;3.25;;;3.50;99.90;;;;;;4954073;28;20047;-82
2023/03/16 04:09:25;;;;;;;8.75;3.35;;;3.30;99.90;;;;;;4955354;28;20053;-82
2023/03/16 04:11:51;;;;;;;7.88;3.22;;;3.30;99.90;;;;;;4954911;28;20535;-82
2023/03/16 04:14:17;;;;;;;9.40;3.60;;;3.90;99.90;;;;;;4954319;28;20050;-82
2023/03/16 04:16:43;;;;;;;9.95;3.40;;;3.30;99.90;;;;;;4939445;28;20479;-81
2023/03/16 04:19:10;;;;;;;9.85;3.42;;;3.30;99.90;;;;;;4955127;28;20498;-81
2023/03/16 04:21:36;;;;;;;12.32;3.60;;;3.70;99.90;;;;;;4953245;28;20046;-82
2023/03/16 04:24:04;;;;;;;8.57;3.13;;;3.30;99.90;;;;;;4955267;28;20043;-81
2023/03/16 04:26:30;;;;;;;10.25;4.22;;;3.30;99.90;;;;;;4938836;28;20078;-82
2023/03/16 04:28:57;;;;;;;8.88;3.60;;;3.70;99.90;;;;;;4954315;28;20522;-82
2023/03/16 04:31:23;;;;;;;8.57;3.53;;;3.80;99.90;;;;;;4954362;28;20051;-82
2023/03/16 04:33:49;;;;;;;11.00;3.95;;;3.30;99.90;;;;;;4954627;28;20134;-82
2023/03/16 04:36:15;;;;;;;7.32;3.22;;;3.30;99.90;;;;;;4953000;28;20135;-82
2023/03/16 04:38:41;;;;;;;11.57;3.65;;;3.90;99.90;;;;;;4954539;28;20043;-82
2023/03/16 04:41:07;;;;;;;6.80;3.40;;;3.90;99.90;;;;;;4972122;28;20406;-82
2023/03/16 04:43:33;;;;;;;8.85;4.13;;;4.20;99.90;;;;;;4973335;28;20438;-82
2023/03/16 04:46:01;;;;;;;7.60;3.72;;;3.30;99.90;;;;;;4973991;28;20046;-82
2023/03/16 04:48:29;;;;;;;11.38;3.85;;;3.60;99.90;;;;;;4957418;28;20137;-82
2023/03/16 04:50:55;;;;;;;12.48;3.88;;;3.30;99.90;;;;;;4956652;28;20048;-81
2023/03/16 04:53:21;;;;;;;11.23;4.00;;;3.30;99.90;;;;;;4973656;28;20042;-81
2023/03/16 04:55:46;;;;;;;10.43;3.70;;;3.50;99.90;;;;;;4971720;28;20343;-82
2023/03/16 04:58:13;;;;;;;8.65;3.83;;;3.30;99.90;;;;;;4973775;28;20050;-82
2023/03/16 05:00:40;;;;;;;11.75;3.97;;;3.30;99.90;;;;;;4973340;28;20398;-82
2023/03/16 05:03:09;;;;;;;7.13;3.33;;;3.30;99.90;;;;;;4972859;28;20058;-82
2023/03/16 05:05:35;;;;;;;9.13;4.13;;;3.90;99.90;;;;;;4956398;28;20379;-82
2023/03/16 05:08:04;;;;;;;11.73;4.30;;;3.30;99.90;;;;;;4957225;28;20047;-82
2023/03/16 05:10:32;;;;;;;9.07;4.10;;;3.40;99.90;;;;;;4957120;28;20363;-82
2023/03/16 05:12:58;;;;;;;7.88;3.90;;;3.70;99.90;;;;;;4957362;28;20048;-81
2023/03/16 05:15:24;;;;;;;8.73;4.15;;;3.40;99.90;;;;;;4957409;28;20060;-82
2023/03/16 05:17:50;;;;;;;9.68;3.70;;;3.80;99.90;;;;;;4956213;28;20474;-82
2023/03/16 05:20:16;;;;;;;12.20;4.53;;;3.40;99.90;;;;;;4972401;28;20118;-81
2023/03/16 05:22:43;;;;;;;13.18;4.22;;;3.40;99.90;;;;;;4957006;28;20136;-82
2023/03/16 05:25:13;;;;;;;9.68;4.10;;;3.90;99.90;;;;;;4956051;28;20119;-82
2023/03/16 05:27:42;;;;;;;7.93;3.70;;;3.80;99.90;;;;;;4957082;28;20050;-82
2023/03/16 05:30:10;;;;;;;10.90;4.53;;;3.40;99.90;;;;;;4972770;28;20057;-82
2023/03/16 05:32:37;;;;;;;9.10;4.18;;;3.40;99.90;;;;;;4956264;28;20128;-82
2023/03/16 05:35:03;;;;;;;8.63;3.70;;;3.80;99.90;;;;;;4955703;28;20406;-82
2023/03/16 05:37:30;;;;;;;9.32;4.07;;;3.40;99.90;;;;;;4972515;28;20046;-82
2023/03/16 05:39:57;;;;;;;9.68;4.43;;;4.00;99.90;;;;;;4955960;28;20054;-81
2023/03/16 05:42:25;;;;;;;8.18;4.43;;;3.40;99.90;;;;;;4955311;28;20117;-82
2023/03/16 05:44:52;;;;;;;8.93;4.20;;;3.50;99.90;;;;;;4970843;28;20066;-83
2023/03/16 05:47:19;;;;;;;9.52;3.88;;;3.50;99.90;;;;;;4956445;28;20581;-83
2023/03/16 05:49:44;;;;;;;8.32;3.95;;;3.60;99.90;;;;;;4956555;28;20046;-82
2023/03/16 05:52:10;;;;;;;8.43;3.83;;;4.50;99.90;;;;;;4955107;28;20371;-82
2023/03/16 05:54:36;;;;;;;9.10;4.43;;;3.50;99.90;;;;;;4956471;28;20413;-82
2023/03/16 05:57:02;;;;;;;6.93;3.70;;;3.50;99.90;;;;;;4971705;28;20066;-83
2023/03/16 05:59:27;;;;;;;8.73;4.15;;;3.50;99.90;;;;;;4956131;28;20046;-83
2023/03/16 06:01:53;;;;;;;10.98;3.97;;;4.20;99.90;;;;;;4955611;28;20153;-83
2023/03/16 06:04:19;;;;;;;9.75;4.38;;;3.90;99.90;;;;;;4956658;28;20077;-83
2023/03/16 06:06:44;;;;;;;10.05;4.10;;;4.30;99.90;;;;;;4954691;28;20537;-82
2023/03/16 06:09:10;;;;;;;9.90;4.43;;;3.50;99.90;;;;;;4954983;28;20053;-82
2023/03/16 06:11:36;;;;;;;8.75;4.43;;;4.10;99.90;;;;;;4955956;28;20043;-83
2023/03/16 06:14:01;;;;;;;9.40;3.80;;;4.10;99.90;;;;;;4971385;28;20066;-82
2023/03/16 06:16:28;;;;;;;7.40;4.32;;;3.60;99.90;;;;;;4956035;28;20076;-83
2023/03/16 06:18:55;;;;;;;9.25;4.25;;;3.60;99.90;;;;;;4972094;28;20042;-82
2023/03/16 06:21:22;;;;;;;10.75;5.05;;;3.60;99.90;;;;;;4970043;28;20042;-83
2023/03/16 06:23:47;;;;;;;8.25;4.25;;;3.60;99.90;;;;;;4956407;28;20603;-82
2023/03/16 06:26:13;;;;;;;11.98;4.80;;;4.40;99.90;;;;;;4971383;28;20046;-81
2023/03/16 06:28:40;;;;;;;9.07;4.32;;;4.10;99.90;;;;;;4971633;28;20042;-82
2023/03/16 06:31:06;;;;;;;8.68;4.32;;;3.60;99.90;;;;;;4971850;28;20050;-82
2023/03/16 06:33:32;;;;;;;8.68;4.15;;;3.60;99.90;;;;;;4954920;28;20042;-82
2023/03/16 06:35:57;;;;;;;12.45;4.85;;;3.70;99.90;;;;;;4970719;28;20065;-82
2023/03/16 06:38:23;;;;;;;9.23;4.20;;;4.30;99.90;;;;;;4955311;28;20100;-81
2023/03/16 06:40:53;;;;;;;10.27;4.43;;;3.70;99.90;;;;;;4951307;28;20054;-82
2023/03/16 06:43:19;;;;;;;7.40;4.32;;;3.90;99.90;;;;;;4935758;28;20529;-82
2023/03/16 06:45:45;;;;;;;10.32;4.03;;;3.70;99.90;;;;;;4936079;28;20220;-82
2023/03/16 06:48:10;;;;;;;9.48;4.13;;;3.70;99.90;;;;;;4936046;28;20070;-82
2023/03/16 06:50:36;;;;;;;6.28;4.13;;;4.00;99.90;;;;;;4950773;28;20039;-82
2023/03/16 06:53:02;;;;;;;8.35;4.32;;;4.40;99.90;;;;;;4952604;28;20047;-82
2023/03/16 06:55:27;;;;;;;8.68;4.18;;;3.80;99.90;;;;;;4951525;28;20512;-82
2023/03/16 06:57:53;;;;;;;7.50;4.03;;;4.10;99.90;;;;;;4952439;28;20038;-82
2023/03/16 07:00:19;;;;;;;8.23;3.97;;;3.90;99.90;;;;;;4952060;28;20051;-82
2023/03/16 07:02:45;;;;;;;10.13;4.72;;;4.00;99.90;;;;;;4958109;28;20132;-82
2023/03/16 07:05:12;;;;;;;9.40;4.03;;;3.90;99.90;;;;;;4970801;28;20054;-81
2023/03/16 07:07:39;;;;;;;7.50;3.72;;;4.10;99.90;;;;;;4964184;28;20598;-81
2023/03/16 07:10:05;;;;;;;11.00;4.03;;;4.00;99.90;;;;;;4989918;28;20123;-81
2023/03/16 07:12:31;;;;;;;9.93;4.43;;;4.00;99.90;;;;;;4975153;28;20493;-82
2023/03/16 07:14:56;;;;;;;6.70;3.78;;;4.60;99.90;;;;;;4974091;28;20037;-82
2023/03/16 07:17:22;;;;;;;6.28;3.67;;;4.10;99.90;;;;;;4990271;28;20095;-82
2023/03/16 07:19:48;;;;;;;8.00;3.67;;;4.20;99.90;;;;;;4973697;28;20042;-81
2023/03/16 07:22:13;;;;;;;8.07;4.20;;;4.50;99.90;;;;;;4969858;28;20042;-81
2023/03/16 07:24:40;;;;;;;11.13;3.90;;;4.20;99.90;;;;;;4958780;28;20077;-82
2023/03/16 07:27:06;;;;;;;9.05;3.72;;;4.20;99.90;;;;;;4943764;28;20065;-81
2023/03/16 07:29:33;;;;;;;6.65;3.60;;;4.20;99.90;;;;;;4961489;28;20415;-81
2023/03/16 07:31:58;;;;;;;8.27;4.25;;;4.20;99.90;;;;;;4949292;28;20073;-82
2023/03/16 07:34:24;;;;;;;8.05;3.85;;;4.60;99.90;;;;;;4971102;28;20077;-81
2023/03/16 07:36:51;;;;;;;9.82;3.78;;;4.30;99.90;;;;;;4960054;28;20046;-81
2023/03/16 07:39:17;;;;;;;7.60;3.85;;;4.30;99.90;;;;;;4937499;28;20050;-82
2023/03/16 07:41:43;;;;;;;9.07;3.60;;;4.60;99.90;;;;;;4935751;28;20081;-82
2023/03/16 07:44:10;;;;;;;7.05;3.53;;;4.50;99.90;;;;;;4950210;28;20051;-81
2023/03/16 07:46:36;;;;;;;9.25;3.83;;;4.50;99.90;;;;;;4935504;28;20043;-82
2023/03/16 07:49:02;;;;;;;10.43;3.58;;;5.00;99.90;;;;;;4935351;28;20054;-82
2023/03/16 07:51:27;;;;;;;8.18;4.15;;;4.50;99.90;;;;;;4950382;28;20411;-82
2023/03/16 07:53:53;;;;;;;11.30;4.00;;;4.70;99.90;;;;;;4935714;28;20046;-85
2023/03/16 07:56:20;;;;;;;11.50;4.25;;;5.40;99.90;;;;;;4950930;28;20043;-83
2023/03/16 07:58:46;;;;;;;13.35;3.97;;;4.60;99.90;;;;;;4954603;28;20471;-83
2023/03/16 08:01:11;;;;;;;6.10;3.55;;;4.60;99.90;;;;;;4970167;28;20081;-81
2023/03/16 08:03:37;;;;;;;12.52;4.25;;;5.20;99.90;;;;;;4954788;28;20047;-82
2023/03/16 08:06:04;;;;;;;11.15;4.57;;;4.70;99.90;;;;;;4953119;28;20046;-82
2023/03/16 08:08:30;;;;;;;9.85;4.45;;;4.80;99.90;;;;;;4970737;28;20046;-81
2023/03/16 08:10:56;;;;;;;10.90;4.35;;;4.90;99.90;;;;;;4970956;28;20414;-82
2023/03/16 08:13:22;;;;;;;7.63;4.18;;;4.90;99.90;;;;;;4953644;28;20046;-82
2023/03/16 08:15:54;;;;;;;8.57;4.13;;;5.00;99.90;;;;;;4970615;28;20049;-82
2023/03/16 08:18:22;;;;;;;8.13;4.10;;;5.00;99.90;;;;;;4970227;28;20061;-83
2023/03/16 08:20:48;;;;;;;10.77;4.25;;;5.10;99.90;;;;;;4969246;28;20057;-82
2023/03/16 08:23:14;;;;;;;8.93;3.88;;;5.20;99.90;;;;;;4970413;28;20418;-82
2023/03/16 08:25:40;;;;;;;8.05;3.90;;;5.30;99.90;;;;;;4970127;28;20482;-82
2023/03/16 08:28:07;;;;;;;8.95;4.00;;;5.20;99.90;;;;;;4969882;28;20064;-82
2023/03/16 08:30:34;;;;;;;8.32;3.65;;;5.20;99.90;;;;;;4970155;28;20046;-82
2023/03/16 08:33:02;;;;;;;6.38;4.00;;;5.50;99.90;;;;;;4974688;28;20050;-83
2023/03/16 08:35:28;;;;;;;10.93;4.18;;;5.40;99.90;;;;;;4972415;28;20140;-82
2023/03/16 08:37:55;;;;;;;9.30;4.03;;;5.70;99.90;;;;;;4958052;28;20054;-82
2023/03/16 08:40:21;;;;;;;8.32;4.07;;;5.20;99.90;;;;;;4960752;28;20106;-82
2023/03/16 08:42:49;;;;;;;8.05;4.00;;;5.10;99.90;;;;;;4970440;28;20057;-82
2023/03/16 08:45:16;;;;;;;13.65;4.60;;;5.10;99.90;;;;;;4954789;28;20051;-82
2023/03/16 08:47:42;;;;;;;7.00;4.07;;;5.00;99.90;;;;;;4953565;28;20129;-82
2023/03/16 08:50:12;;;;;;;8.52;3.65;;;5.10;99.90;;;;;;4937435;28;20082;-82
2023/03/16 08:52:37;;;;;;;7.68;3.90;;;5.00;99.90;;;;;;4953913;28;20541;-82
2023/03/16 08:55:04;;;;;;;11.20;4.40;;;5.00;99.90;;;;;;4953273;28;20043;-81
2023/03/16 08:57:32;;;;;;;7.95;3.85;;;5.10;99.90;;;;;;4954093;28;20053;-82
2023/03/16 08:59:58;;;;;;;9.57;4.30;;;5.40;99.90;;;;;;4972217;28;20085;-81
2023/03/16 09:02:25;;;;;;;8.18;4.07;;;5.20;99.90;;;;;;4953357;28;20417;-82
2023/03/16 09:04:51;;;;;;;7.45;4.03;;;5.10;99.90;;;;;;4953699;28;20127;-82
2023/03/16 09:07:18;;;;;;;7.15;3.97;;;5.10;99.90;;;;;;4970035;28;20487;-82
2023/03/16 09:09:45;;;;;;;13.73;4.07;;;5.20;99.90;;;;;;4937214;28;20054;-82
2023/03/16 09:12:11;;;;;;;7.25;3.92;;;5.20;99.90;;;;;;4937569;28;20462;-82
2023/03/16 09:14:38;;;;;;;8.75;4.15;;;5.20;99.90;;;;;;4937093;28;20038;-82
2023/03/16 09:17:06;;;;;;;12.10;4.25;;;5.20;99.90;;;;;;4953038;28;20149;-82
2023/03/16 09:19:32;;;;;;;8.35;4.38;;;5.20;99.90;;;;;;4953496;28;20047;-82
2023/03/16 09:21:58;;;;;;;7.03;3.95;;;5.20;99.90;;;;;;4952957;28;20043;-82
2023/03/16 09:24:24;;;;;;;12.45;4.57;;;5.30;99.90;;;;;;4953097;28;20057;-82
2023/03/16 09:26:50;;;;;;;8.13;4.60;;;5.30;99.90;;;;;;4937185;28;20086;-82
2023/03/16 09:29:17;;;;;;;9.15;4.05;;;5.30;99.90;;;;;;4953831;28;20365;-82
2023/03/16 09:31:44;;;;;;;11.77;4.72;;;5.90;99.90;;;;;;4952381;28;20085;-82
2023/03/16 09:34:10;;;;;;;12.68;5.47;;;5.30;99.90;;;;;;4969922;28;20566;-82
2023/03/16 09:36:36;;;;;;;11.55;4.30;;;5.50;99.90;;;;;;4968175;28;20502;-83
2023/03/16 09:39:03;;;;;;;8.30;4.40;;;5.30;99.90;;;;;;4939087;28;20057;-82
2023/03/16 09:41:46;;;;;;;11.50;4.45;;;5.30;99.90;;;;;;4956700;28;20050;-82
2023/03/16 09:44:28;;;;;;;10.40;4.70;;;5.20;99.90;;;;;;4955824;28;20098;-82
2023/03/16 09:46:55;;;;;;;8.85;4.80;;;5.30;99.90;;;;;;4972592;28;20038;-82
2023/03/16 09:49:26;;;;;;;10.82;5.15;;;5.40;99.90;;;;;;4972431;28;20065;-82
2023/03/16 09:52:12;;;;;;;8.52;4.30;;;5.50;99.90;;;;;;4954995;28;20418;-82
2023/03/16 09:54:50;;;;;;;11.52;4.97;;;5.70;99.90;;;;;;4972372;28;20494;-82
2023/03/16 09:57:26;;;;;;;10.05;5.20;;;5.80;99.90;;;;;;4956564;28;20500;-83
2023/03/16 09:59:53;;;;;;;9.45;4.93;;;5.90;99.90;;;;;;4971951;28;20156;-82
2023/03/16 10:02:24;;;;;;;13.57;4.93;;;6.10;99.90;;;;;;4972152;28;20458;-83
2023/03/16 10:04:56;;;;;;;8.30;5.03;;;6.20;99.90;;;;;;4971629;28;20105;-83
2023/03/16 10:07:37;;;;;;;8.07;4.80;;;6.30;99.90;;;;;;4955998;28;20042;-82
2023/03/16 10:10:25;;;;;;;10.20;4.88;;;6.30;99.90;;;;;;4971577;28;20050;-82
2023/03/16 10:12:56;;;;;;;7.70;4.38;;;6.30;99.90;;;;;;4971819;28;20058;-82
2023/03/16 10:15:26;;;;;;;22.75;11.88;;;6.30;99.90;;;;;;4971525;28;20058;-82
2023/03/16 10:18:05;;;;;;;9.13;4.72;;;6.20;99.90;;;;;;4972100;28;20133;-82
2023/03/16 10:20:32;;;;;;;11.00;6.07;;;6.20;99.90;;;;;;4970830;28;20054;-83
2023/03/16 10:23:01;;;;;;;9.82;4.60;;;6.20;99.90;;;;;;4972382;28;20531;-82
2023/03/16 10:25:40;;;;;;;9.82;5.43;;;6.20;99.90;;;;;;4955987;28;20039;-82
2023/03/16 10:28:06;;;;;;;10.48;4.68;;;6.20;99.90;;;;;;4971593;28;20115;-83
2023/03/16 10:30:36;;;;;;;10.70;5.78;;;6.20;99.90;;;;;;4971905;28;20038;-83
2023/03/16 10:33:22;;;;;;;25.63;10.70;;;6.30;99.90;;;;;;4970760;28;20120;-82
2023/03/16 10:36:04;;;;;;;17.67;11.30;;;6.30;99.90;;;;;;4971090;28;20061;-82
2023/03/16 10:38:37;;;;;;;8.25;5.28;;;6.30;99.90;;;;;;4972214;28;20089;-82
2023/03/16 10:41:22;;;;;;;14.95;6.20;;;6.30;99.90;;;;;;4970455;28;20054;-82
2023/03/16 10:44:06;;;;;;;8.82;4.25;;;6.30;99.90;;;;;;4971049;28;20418;-82
2023/03/16 10:46:39;;;;;;;9.50;5.18;;;6.20;99.90;;;;;;4971190;28;20386;-82
2023/03/16 10:49:05;;;;;;;10.90;4.97;;;6.20;99.90;;;;;;4971015;28;20133;-82
2023/03/16 10:51:36;;;;;;;8.07;4.65;;;6.20;99.90;;;;;;4970743;28;20046;-82
2023/03/16 10:54:13;;;;;;;9.13;5.43;;;6.20;99.90;;;;;;4970687;28;20042;-82
2023/03/16 10:56:39;;;;;;;8.95;4.95;;;6.20;99.90;;;;;;4955176;28;20077;-83
2023/03/16 10:59:28;;;;;;;8.25;5.38;;;6.20;99.90;;;;;;4971365;28;20050;-83
2023/03/16 11:01:55;;;;;;;13.35;5.35;;;6.20;99.90;;;;;;4970475;28;20050;-83
2023/03/16 11:04:20;;;;;;;10.65;5.47;;;6.10;99.90;;;;;;4971606;28;20042;-83
2023/03/16 11:06:52;;;;;;;9.13;5.10;;;6.20;99.90;;;;;;4953914;28;20371;-83
2023/03/16 11:09:22;;;;;;;10.77;5.90;;;6.20;99.90;;;;;;4954649;28;20053;-83
2023/03/16 11:11:49;;;;;;;12.15;5.55;;;6.20;99.90;;;;;;4971099;28;20566;-83
2023/03/16 11:14:20;;;;;;;11.55;5.55;;;6.20;99.90;;;;;;4971361;28;20085;-82
2023/03/16 11:16:57;;;;;;;11.85;4.95;;;6.20;99.90;;;;;;4970392;28;20053;-83
2023/03/16 11:19:30;;;;;;;7.90;4.43;;;6.20;99.90;;;;;;4970779;28;20046;-82
2023/03/16 11:22:03;;;;;;;9.63;5.38;;;6.20;99.90;;;;;;4969660;28;20101;-83
2023/03/16 11:25:24;;;;;;;11.98;4.93;;;6.10;99.90;;;;;;4971437;28;20046;-83
2023/03/16 11:27:58;;;;;;;11.27;5.00;;;6.10;99.90;;;;;;4971003;28;20057;-83
2023/03/16 11:30:38;;;;;;;9.50;4.47;;;6.20;99.90;;;;;;4970147;28;20054;-83
2023/03/16 11:33:08;;;;;;;10.35;4.50;;;6.20;99.90;;;;;;4971361;28;20394;-83
2023/03/16 11:35:35;;;;;;;9.98;4.55;;;6.30;99.90;;;;;;4986996;28;20039;-83
2023/03/16 11:38:18;;;;;;;10.50;5.47;;;6.40;99.90;;;;;;4954541;28;20061;-82
2023/03/16 11:41:00;;;;;;;8.98;5.07;;;6.50;99.90;;;;;;4954559;28;20042;-82
2023/03/16 11:43:46;;;;;;;7.43;5.13;;;6.80;99.90;;;;;;4970583;28;20077;-82
2023/03/16 11:46:26;;;;;;;9.48;5.20;;;6.70;99.90;;;;;;4970827;28;20046;-83
2023/03/16 11:48:58;;;;;;;10.82;5.03;;;6.80;99.90;;;;;;4971636;28;20464;-83
2023/03/16 11:51:55;;;;;;;11.65;4.97;;;6.80;99.90;;;;;;4969265;28;20042;-83
2023/03/16 11:54:37;;;;;;;8.90;4.45;;;6.80;99.90;;;;;;4971036;28;20494;-83
2023/03/16 11:57:12;;;;;;;9.35;4.75;;;6.80;99.90;;;;;;4970902;28;20042;-83
2023/03/16 12:00:00;;;;;;;9.57;4.78;;;6.80;99.90;;;;;;4954892;28;20406;-83
2023/03/16 12:02:44;;;;;;;8.45;4.38;;;6.80;99.90;;;;;;4955199;28;20090;-83
2023/03/16 12:05:38;;;;;;;10.02;4.60;;;6.90;99.90;;;;;;4953078;28;20244;-83
2023/03/16 12:08:16;;;;;;;11.52;4.50;;;6.80;99.90;;;;;;4974528;28;20043;-82
2023/03/16 12:10:53;;;;;;;10.35;5.45;;;6.90;99.90;;;;;;4974274;28;20054;-82
2023/03/16 12:13:40;;;;;;;14.70;7.22;;;6.90;99.90;;;;;;4972791;28;20054;-85
2023/03/16 12:16:20;;;;;;;8.43;4.78;;;7.00;99.90;;;;;;4973553;28;20481;-83
2023/03/16 12:18:52;;;;;;;7.95;4.43;;;7.10;99.90;;;;;;4957499;28;20046;-84
2023/03/16 12:21:30;;;;;;;10.05;4.43;;;7.30;99.90;;;;;;4957601;28;20089;-84
2023/03/16 12:24:01;;;;;;;9.50;4.55;;;7.40;99.90;;;;;;4958307;28;20085;-84
2023/03/16 12:26:33;;;;;;;8.75;4.30;;;7.50;99.90;;;;;;4957079;28;20141;-85
2023/03/16 12:29:02;;;;;;;13.52;4.40;;;7.60;99.90;;;;;;4958795;28;20046;-84
2023/03/16 12:31:44;;;;;;;8.63;4.60;;;7.70;99.90;;;;;;4958103;28;20088;-84
2023/03/16 12:34:17;;;;;;;8.50;4.72;;;7.80;99.90;;;;;;4957575;28;20461;-83
2023/03/16 12:37:09;;;;;;;8.50;3.70;;;7.90;99.90;;;;;;4957007;28;20434;-84
2023/03/16 12:39:51;;;;;;;6.25;3.42;;;8.00;99.90;;;;;;4973921;28;20441;-84
2023/03/16 12:42:18;;;;;;;8.90;3.93;;;8.00;99.90;;;;;;4974345;28;20058;-85
2023/03/16 12:44:52;;;;;;;10.43;4.38;;;8.00;99.90;;;;;;4974242;28;20509;-85
2023/03/16 12:47:41;;;;;;;8.50;4.40;;;8.10;99.90;;;;;;4957192;28;20413;-85
2023/03/16 12:50:14;;;;;;;10.50;4.28;;;8.20;99.90;;;;;;4956661;28;20045;-85
2023/03/16 12:52:43;;;;;;;10.25;4.55;;;8.20;99.90;;;;;;4974408;28;20442;-84
2023/03/16 12:55:38;;;;;;;8.25;4.05;;;8.30;99.90;;;;;;4989063;28;20054;-85
2023/03/16 12:58:06;;;;;;;9.77;4.40;;;8.30;99.90;;;;;;4958161;28;20512;-84
2023/03/16 13:00:36;;;;;;;10.93;4.50;;;8.40;99.90;;;;;;4972595;28;20042;-84
2023/03/16 13:03:04;;;;;;;8.32;3.97;;;8.40;99.90;;;;;;4957705;28;20042;-83